KLSEKBCK

Guest
Details From KLSE - LA CROSSE MUNI
To KBCK - Black River Falls Area
Flight Number -
Tags generated
Created
Modified
Stats Distance 28 nm / 52 km
Max Altitude 900 ft / 274 m
Waypoints 3
Social Downloads 1
Likes 0
Share VATSIM

Download

Looking for another format? Having issues loading an existing format? Contact us
Advertisement - Login to hide

Notes

Basic altitude profile: - Ascent Rate: 2500ft/min - Ascent Speed: 250kts - Cruise Altitude: 35000ft - Cruise Speed: 420kts - Descent Rate: 1500ft/min - Descent Speed: 250kts Options: - Use NATs: yes - Use PACOTS: yes - Use low airways: yes - Use high airways: yes

Route

KLSE SAUCY KBCK

ID Type Via Altitude Latitude Longitude Leg Dist Tot Dist Heading (true) Name
O KLSE APT - 0 ft / 0 m 43.87882˚ -91.25621˚ - 0 nm - LA CROSSE MUNI
SAUCY FIX - 900 ft / 274 m 44.18831˚ -90.91736˚ 23 nm 23 nm 38° / 38° -
O KBCK APT - 0 ft / 0 m 44.25074˚ -90.85528˚ 4 nm 28 nm 35° / 35° Black River Falls Area

Altitude Profile

Advertisement - Login to hide

KLSE

Details ICAO KLSE (LSE)
Name LA CROSSE MUNI
Region United States
Timezone America/Chicago (UTC-6.0)
Stats Elevation 653 ft / 199 m (AMSL)
Location 43.878815° -91.256206°
Runways 3
Magnetic Variation 1.304° W

METAR

KLSE 120010Z 34014G23KT 10SM BKN030 OVC036 01/M04 A2993 RMK AO2 T00061044

Decode

TAF

KLSE 112335Z 1200/1224 33017G30KT P6SM OVC020 FM120200 33016G27KT P6SM BKN045 FM121200 32011KT P6SM FEW250

Decode

Departure Runways

ID Width Length Bearing (true) Bearing (mag) Surface Threshold Offset Overrun Length
03 150 ft / 46 m 5,204 ft / 1,586 m 36.00° 37.30° Asphalt 0 ft / 0 m 0 ft / 0 m
13 150 ft / 46 m 6,056 ft / 1,846 m 134.61° 135.91° Asphalt 0 ft / 0 m 0 ft / 0 m
18 150 ft / 46 m 8,750 ft / 2,667 m 179.43° 180.73° Concrete 0 ft / 0 m 0 ft / 0 m
21 150 ft / 46 m 5,204 ft / 1,586 m 216.01° 217.31° Asphalt 0 ft / 0 m 0 ft / 0 m
31 150 ft / 46 m 6,056 ft / 1,846 m 314.62° 315.92° Asphalt 732 ft / 223 m 0 ft / 0 m
36 150 ft / 46 m 8,750 ft / 2,667 m 359.43° 0.73° Concrete 1,132 ft / 345 m 0 ft / 0 m

KBCK

Details ICAO KBCK
Name Black River Falls Area
Region United States
Timezone America/Chicago (UTC-6.0)
Stats Elevation 836 ft / 255 m (AMSL)
Location 44.250739° -90.855282°
Runways 1
Magnetic Variation 1.683° W

METAR

KBCK 120035Z AUTO 33009G16KT 10SM OVC031 M01/M07 A2993 RMK AO2 T10071072

Decode

TAF

Not found

Destination Runways

ID Width Length Bearing (true) Bearing (mag) Surface Threshold Offset Overrun Length
08 75 ft / 23 m 4,591 ft / 1,399 m 80.41° 82.09° Asphalt 0 ft / 0 m 0 ft / 0 m
26 75 ft / 23 m 4,591 ft / 1,399 m 260.43° 262.11° Asphalt 0 ft / 0 m 0 ft / 0 m

Popular Alternatives